Time;durP1;ratioP1;P1;durP2;ratioP2;P2;SDS_P1;SDS_P2;PMS_P1;PMS_P2;Temp;Humidity;BMP_temperature;BMP_pressure;BME280_temperature;BME280_humidity;BME280_pressure;Samples;Min_cycle;Max_cycle;Signal;HPM_P1;HPM_P2
2022/07/31 00:02:12;;;;;;;5.03;3.00;;;21.90;99.90;;;;;;5017775;28;20456;-70
2022/07/31 00:04:39;;;;;;;2.40;1.93;;;21.90;99.90;;;;;;5030297;28;20544;-71
2022/07/31 00:07:06;;;;;;;4.47;2.00;;;21.90;99.90;;;;;;5033698;28;20583;-71
2022/07/31 00:09:33;;;;;;;3.53;2.40;;;21.90;99.90;;;;;;5027134;28;20468;-70
2022/07/31 00:12:00;;;;;;;2.80;1.90;;;21.80;99.90;;;;;;5026191;28;20460;-70
2022/07/31 00:14:28;;;;;;;2.70;2.50;;;21.80;99.90;;;;;;5030768;28;20915;-70
2022/07/31 00:16:56;;;;;;;4.00;2.20;;;21.80;99.90;;;;;;5030285;28;20496;-71
2022/07/31 00:19:24;;;;;;;2.50;1.60;;;21.80;99.90;;;;;;5037627;28;20452;-71
2022/07/31 00:21:51;;;;;;;4.50;1.97;;;21.80;99.90;;;;;;5032630;28;20461;-70
2022/07/31 00:24:18;;;;;;;2.90;1.83;;;21.70;99.90;;;;;;5024163;28;20531;-71
2022/07/31 00:26:45;;;;;;;2.10;1.83;;;21.80;99.90;;;;;;5016943;28;20496;-71
2022/07/31 00:29:12;;;;;;;3.80;2.23;;;21.80;99.90;;;;;;5024482;28;20463;-71
2022/07/31 00:31:39;;;;;;;2.53;1.67;;;21.80;99.90;;;;;;5031196;28;20472;-72
2022/07/31 00:34:06;;;;;;;2.87;1.90;;;21.70;99.90;;;;;;5024051;28;21053;-71
2022/07/31 00:36:34;;;;;;;2.20;2.00;;;21.70;99.90;;;;;;5028886;28;20486;-71
2022/07/31 00:39:01;;;;;;;2.93;1.87;;;21.50;99.90;;;;;;5029636;28;20464;-71
2022/07/31 00:41:38;;;;;;;5.03;2.30;;;21.40;99.90;;;;;;5020664;28;20762;-72
2022/07/31 00:44:05;;;;;;;2.10;1.90;;;21.50;99.90;;;;;;5031263;28;20452;-72
2022/07/31 00:46:32;;;;;;;2.07;1.87;;;21.40;99.90;;;;;;5030596;28;20476;-71
2022/07/31 00:48:59;;;;;;;2.43;2.10;;;21.30;99.90;;;;;;5020903;28;20486;-72
2022/07/31 00:51:26;;;;;;;2.10;1.90;;;21.40;99.90;;;;;;5019862;28;20559;-71
2022/07/31 00:53:55;;;;;;;4.20;2.17;;;21.30;99.90;;;;;;5011897;28;21080;-74
2022/07/31 00:56:22;;;;;;;5.37;2.40;;;21.40;99.90;;;;;;5020174;28;20858;-71
2022/07/31 00:58:48;;;;;;;8.27;2.30;;;21.30;99.90;;;;;;5025816;28;20791;-75
2022/07/31 01:01:15;;;;;;;4.43;1.80;;;21.20;99.90;;;;;;5009242;28;20451;-72
2022/07/31 01:03:42;;;;;;;2.20;1.80;;;21.20;99.90;;;;;;5018793;28;20464;-72
2022/07/31 01:06:09;;;;;;;3.50;1.70;;;21.20;99.90;;;;;;4995220;28;20491;-70
2022/07/31 01:08:36;;;;;;;4.23;2.67;;;21.10;99.90;;;;;;4997425;28;20463;-70
2022/07/31 01:11:11;;;;;;;2.80;1.90;;;21.10;99.90;;;;;;5012342;28;20598;-70
2022/07/31 01:13:44;;;;;;;3.80;2.20;;;21.20;99.90;;;;;;5015498;28;20475;-71
2022/07/31 01:16:12;;;;;;;2.37;2.00;;;21.00;99.90;;;;;;5008750;28;20490;-72
2022/07/31 01:18:42;;;;;;;3.10;2.77;;;21.00;99.90;;;;;;5013363;28;20495;-71
2022/07/31 01:21:15;;;;;;;2.30;1.93;;;20.70;99.90;;;;;;5013302;28;20464;-71
2022/07/31 01:23:56;;;;;;;2.40;2.20;;;20.40;99.90;;;;;;5016788;28;21239;-71
2022/07/31 01:26:36;;;;;;;2.43;2.23;;;20.50;99.90;;;;;;5022131;28;20488;-71
2022/07/31 01:29:14;;;;;;;2.37;2.17;;;20.50;99.90;;;;;;5006935;28;20452;-72
2022/07/31 01:31:46;;;;;;;4.77;2.37;;;20.60;99.90;;;;;;5010732;28;20464;-71
2022/07/31 01:34:22;;;;;;;2.93;2.50;;;20.60;99.90;;;;;;5013770;28;20456;-71
2022/07/31 01:36:58;;;;;;;5.13;2.37;;;20.70;99.90;;;;;;5015536;28;20491;-70
2022/07/31 01:39:26;;;;;;;8.73;2.20;;;20.60;99.90;;;;;;5029854;28;20459;-71
2022/07/31 01:41:54;;;;;;;4.13;2.10;;;20.60;99.90;;;;;;5030278;28;20960;-71
2022/07/31 01:44:26;;;;;;;3.97;3.57;;;20.60;99.90;;;;;;5014312;28;20478;-73
2022/07/31 01:46:56;;;;;;;2.63;2.43;;;20.60;99.90;;;;;;5032683;28;20845;-72
2022/07/31 01:49:26;;;;;;;2.43;1.97;;;20.60;99.90;;;;;;5025633;28;21151;-73
2022/07/31 01:51:55;;;;;;;2.20;2.00;;;20.40;99.90;;;;;;5021501;28;20529;-72
2022/07/31 01:54:23;;;;;;;3.20;2.73;;;20.30;99.90;;;;;;5029774;28;20463;-73
2022/07/31 01:56:51;;;;;;;3.30;2.30;;;20.20;99.90;;;;;;5029778;28;21083;-72
2022/07/31 01:59:20;;;;;;;6.03;2.60;;;20.20;99.90;;;;;;5032501;28;20470;-72
2022/07/31 02:01:49;;;;;;;2.40;2.20;;;20.00;99.90;;;;;;5029075;28;20833;-72
2022/07/31 02:04:17;;;;;;;5.40;2.20;;;19.80;99.90;;;;;;5028251;28;20466;-72
2022/07/31 02:06:50;;;;;;;5.03;2.30;;;19.90;99.90;;;;;;5023313;28;20487;-72
2022/07/31 02:09:19;;;;;;;2.70;2.07;;;19.90;99.90;;;;;;5023321;28;20454;-72
2022/07/31 02:11:46;;;;;;;2.50;2.30;;;20.00;99.90;;;;;;5030054;28;20567;-71
2022/07/31 02:14:15;;;;;;;4.20;2.13;;;20.00;99.90;;;;;;5035615;28;20487;-71
2022/07/31 02:16:42;;;;;;;4.63;2.77;;;20.00;99.90;;;;;;5028680;28;20482;-71
2022/07/31 02:19:12;;;;;;;5.73;2.20;;;20.00;99.90;;;;;;5026208;28;21131;-70
2022/07/31 02:21:39;;;;;;;2.57;2.00;;;20.00;99.90;;;;;;5021990;28;20490;-71
2022/07/31 02:24:06;;;;;;;5.13;2.77;;;20.10;99.90;;;;;;5021692;28;22073;-70
2022/07/31 02:26:35;;;;;;;3.80;3.00;;;20.00;99.90;;;;;;5027632;28;20484;-71
2022/07/31 02:29:03;;;;;;;2.90;2.60;;;19.80;99.90;;;;;;5036476;28;20942;-72
2022/07/31 02:31:32;;;;;;;5.83;2.43;;;19.80;99.90;;;;;;5029642;28;20460;-73
2022/07/31 02:34:00;;;;;;;3.03;2.00;;;19.70;99.90;;;;;;5024136;28;20552;-71
2022/07/31 02:36:30;;;;;;;2.47;2.20;;;19.70;99.90;;;;;;5019273;28;20523;-73
2022/07/31 02:38:58;;;;;;;3.10;2.30;;;19.60;99.90;;;;;;5031190;28;20453;-73
2022/07/31 02:41:26;;;;;;;5.53;2.57;;;19.50;99.90;;;;;;5034285;28;21342;-71
2022/07/31 02:43:54;;;;;;;3.07;2.70;;;19.40;99.90;;;;;;5017971;28;20994;-71
2022/07/31 02:46:22;;;;;;;3.27;2.20;;;19.40;99.90;;;;;;5027878;28;21117;-71
2022/07/31 02:48:49;;;;;;;4.83;2.40;;;19.50;99.90;;;;;;5030780;28;20460;-71
2022/07/31 02:51:17;;;;;;;2.57;2.37;;;19.50;99.90;;;;;;5017718;28;20506;-71
2022/07/31 02:53:46;;;;;;;2.93;1.90;;;19.40;99.90;;;;;;5015679;28;20713;-70
2022/07/31 02:56:14;;;;;;;2.50;2.30;;;19.30;99.90;;;;;;5025572;28;20570;-70
2022/07/31 02:58:41;;;;;;;3.80;2.40;;;19.30;99.90;;;;;;5026632;28;20472;-70
2022/07/31 03:01:09;;;;;;;1.97;1.77;;;19.30;99.90;;;;;;5025865;28;20542;-71
2022/07/31 03:03:36;;;;;;;3.13;2.80;;;19.30;99.90;;;;;;5027303;28;20547;-71
2022/07/31 03:06:04;;;;;;;3.67;2.37;;;19.30;99.90;;;;;;5025400;28;22072;-70
2022/07/31 03:08:31;;;;;;;2.80;2.50;;;19.20;99.90;;;;;;5020564;28;22225;-70
2022/07/31 03:10:59;;;;;;;2.20;2.00;;;19.30;99.90;;;;;;5017084;28;20434;-72
2022/07/31 03:13:28;;;;;;;3.00;2.30;;;19.40;99.90;;;;;;5026466;28;20490;-72
2022/07/31 03:15:56;;;;;;;5.20;3.00;;;19.10;99.90;;;;;;5030753;28;20488;-72
2022/07/31 03:18:25;;;;;;;2.47;2.03;;;18.90;99.90;;;;;;5025708;28;20917;-72
2022/07/31 03:20:52;;;;;;;4.93;2.57;;;19.00;99.90;;;;;;5015185;28;20836;-72
2022/07/31 03:23:21;;;;;;;3.53;3.10;;;19.10;99.90;;;;;;5017938;28;20467;-72
2022/07/31 03:25:50;;;;;;;5.57;2.47;;;19.20;99.90;;;;;;5033185;28;20499;-72
2022/07/31 03:28:19;;;;;;;3.00;2.53;;;19.30;99.90;;;;;;5023479;28;20874;-72
2022/07/31 03:30:46;;;;;;;3.07;2.50;;;19.40;99.90;;;;;;5015296;28;20502;-71
2022/07/31 03:33:13;;;;;;;5.40;2.80;;;19.50;99.90;;;;;;5027741;28;20434;-71
2022/07/31 03:35:40;;;;;;;4.67;2.53;;;19.50;99.90;;;;;;5019578;28;20865;-71
2022/07/31 03:38:07;;;;;;;3.73;2.87;;;19.50;99.90;;;;;;5028188;28;20465;-71
2022/07/31 03:40:34;;;;;;;3.70;3.40;;;19.60;99.90;;;;;;5029766;28;20467;-70
2022/07/31 03:43:03;;;;;;;2.70;2.10;;;19.70;99.90;;;;;;5017165;28;20472;-71
2022/07/31 03:45:34;;;;;;;3.17;2.80;;;19.70;99.90;;;;;;5016934;28;20471;-71
2022/07/31 03:48:01;;;;;;;12.23;3.73;;;19.60;99.90;;;;;;5028580;28;20433;-72
2022/07/31 03:50:29;;;;;;;3.77;2.77;;;19.60;99.90;;;;;;5030454;28;21000;-71
2022/07/31 03:52:57;;;;;;;3.17;2.87;;;19.60;99.90;;;;;;5030081;28;20422;-71
2022/07/31 03:55:25;;;;;;;4.00;3.00;;;19.60;99.90;;;;;;5031487;28;21019;-70
2022/07/31 03:57:53;;;;;;;3.90;2.73;;;19.70;99.90;;;;;;5016304;28;20992;-72
2022/07/31 04:00:25;;;;;;;5.20;3.07;;;19.70;99.90;;;;;;5028802;28;20606;-71
2022/07/31 04:02:54;;;;;;;6.37;3.17;;;19.80;99.90;;;;;;5026409;28;20547;-70
2022/07/31 04:05:21;;;;;;;3.57;2.63;;;19.70;99.90;;;;;;5022894;28;20485;-70
2022/07/31 04:07:48;;;;;;;2.50;2.17;;;19.80;99.90;;;;;;5019626;28;20452;-71
2022/07/31 04:10:14;;;;;;;4.17;3.07;;;19.90;99.90;;;;;;5026173;28;20444;-70
2022/07/31 04:12:41;;;;;;;2.63;2.43;;;19.90;99.90;;;;;;5027759;28;20471;-71
2022/07/31 04:15:08;;;;;;;6.30;2.60;;;20.00;99.90;;;;;;5023523;28;20924;-70
2022/07/31 04:17:35;;;;;;;3.90;2.83;;;20.00;99.90;;;;;;5029723;28;20569;-70
2022/07/31 04:20:04;;;;;;;8.13;3.43;;;20.10;99.90;;;;;;5021942;28;20459;-71
2022/07/31 04:22:31;;;;;;;3.70;3.37;;;20.20;99.90;;;;;;5030026;28;21165;-71
2022/07/31 04:24:58;;;;;;;3.23;2.90;;;20.20;99.90;;;;;;5031462;28;21366;-71
2022/07/31 04:27:25;;;;;;;3.73;2.60;;;20.20;99.90;;;;;;5022839;28;20463;-71
2022/07/31 04:29:55;;;;;;;3.97;3.30;;;20.20;99.90;;;;;;5016485;28;21473;-70
2022/07/31 04:32:22;;;;;;;3.10;2.70;;;20.30;99.90;;;;;;5019296;28;21036;-70
2022/07/31 04:34:49;;;;;;;5.30;2.87;;;20.20;99.90;;;;;;5009264;28;20487;-71
2022/07/31 04:37:17;;;;;;;4.00;2.40;;;20.00;99.90;;;;;;5013584;28;20468;-71
2022/07/31 04:39:44;;;;;;;8.20;2.97;;;19.80;99.90;;;;;;5014480;28;20625;-72
2022/07/31 04:42:12;;;;;;;7.07;2.93;;;19.80;99.90;;;;;;5021661;28;20932;-71
2022/07/31 04:44:38;;;;;;;3.93;2.70;;;20.10;99.90;;;;;;5033483;28;20476;-71
2022/07/31 04:47:06;;;;;;;6.43;2.90;;;20.20;99.90;;;;;;5030640;28;20852;-71
2022/07/31 04:49:33;;;;;;;2.93;2.10;;;20.20;99.90;;;;;;5026091;28;20456;-71
2022/07/31 04:52:00;;;;;;;2.87;2.40;;;20.30;99.90;;;;;;5032536;28;20957;-72
2022/07/31 04:54:29;;;;;;;4.87;3.10;;;20.30;99.90;;;;;;5031033;28;21995;-71
2022/07/31 04:56:55;;;;;;;3.70;3.00;;;20.30;99.90;;;;;;5032096;28;20479;-71
2022/07/31 04:59:23;;;;;;;3.33;2.87;;;20.30;99.90;;;;;;5021031;28;20627;-71
2022/07/31 05:01:51;;;;;;;11.33;3.47;;;20.30;99.90;;;;;;5016828;28;20456;-71
2022/07/31 05:04:18;;;;;;;2.73;2.50;;;20.30;99.90;;;;;;5010008;28;20471;-70
2022/07/31 05:06:46;;;;;;;4.63;3.00;;;20.40;99.90;;;;;;5020815;28;21051;-71
2022/07/31 05:09:15;;;;;;;3.77;2.63;;;20.40;99.90;;;;;;5028671;28;20962;-71
2022/07/31 05:11:43;;;;;;;4.93;3.53;;;20.40;99.90;;;;;;5012516;28;20552;-71
2022/07/31 05:14:12;;;;;;;3.23;2.90;;;20.30;99.90;;;;;;5011805;28;20467;-71
2022/07/31 05:16:39;;;;;;;5.80;3.20;;;20.40;99.90;;;;;;5022253;28;20475;-71
2022/07/31 05:19:06;;;;;;;3.17;2.97;;;20.50;99.90;;;;;;5010831;28;20495;-71
2022/07/31 05:21:33;;;;;;;4.47;2.67;;;20.60;99.90;;;;;;5022588;28;20459;-71
2022/07/31 05:24:01;;;;;;;3.37;2.73;;;20.70;99.90;;;;;;5018626;28;20460;-71
2022/07/31 05:26:30;;;;;;;3.40;2.20;;;20.80;99.90;;;;;;5013415;22;20516;-72
2022/07/31 05:29:00;;;;;;;4.00;2.50;;;20.90;99.90;;;;;;4989584;28;20587;-73
2022/07/31 05:31:27;;;;;;;3.70;3.07;;;21.20;99.90;;;;;;4993460;28;20535;-73
2022/07/31 05:33:56;;;;;;;4.07;3.07;;;21.20;99.90;;;;;;4996366;28;20453;-72
2022/07/31 05:36:23;;;;;;;4.93;2.93;;;21.20;99.90;;;;;;5002896;28;20954;-72
2022/07/31 05:38:53;;;;;;;2.43;2.23;;;21.50;99.90;;;;;;4990065;28;21009;-73
2022/07/31 05:41:19;;;;;;;2.53;2.30;;;21.60;99.90;;;;;;4999491;28;20467;-71
2022/07/31 05:43:46;;;;;;;4.80;2.40;;;21.70;99.90;;;;;;5009025;28;20463;-71
2022/07/31 05:46:16;;;;;;;2.50;2.03;;;21.90;99.90;;;;;;5004451;28;20843;-74
2022/07/31 05:48:43;;;;;;;2.60;2.40;;;21.70;99.90;;;;;;4993746;28;20533;-71
2022/07/31 05:51:11;;;;;;;10.10;3.70;;;21.90;99.90;;;;;;4991362;28;20461;-71
2022/07/31 05:53:38;;;;;;;3.30;2.40;;;21.70;99.90;;;;;;4984534;28;22679;-71
2022/07/31 05:56:06;;;;;;;2.13;1.93;;;21.80;99.90;;;;;;4999436;28;20491;-72
2022/07/31 05:58:33;;;;;;;3.67;3.10;;;21.90;99.90;;;;;;4995865;28;20486;-72
2022/07/31 06:01:01;;;;;;;4.70;3.60;;;22.00;99.90;;;;;;5000182;28;20495;-72
2022/07/31 06:03:34;;;;;;;5.90;2.37;;;21.90;99.90;;;;;;5008263;28;20574;-72
2022/07/31 06:06:02;;;;;;;2.77;2.13;;;22.00;99.90;;;;;;5010363;28;20482;-73
2022/07/31 06:08:30;;;;;;;3.30;2.80;;;22.10;99.90;;;;;;5017489;28;20446;-73
2022/07/31 06:10:57;;;;;;;3.97;2.13;;;22.10;99.90;;;;;;5012563;28;20456;-73
2022/07/31 06:13:25;;;;;;;5.53;2.50;;;22.20;99.90;;;;;;5011802;28;20461;-72
2022/07/31 06:15:52;;;;;;;3.80;3.00;;;22.20;99.90;;;;;;5003206;28;21061;-73
2022/07/31 06:18:19;;;;;;;4.00;2.53;;;22.00;99.90;;;;;;5005475;28;20656;-72
2022/07/31 06:20:48;;;;;;;2.57;2.37;;;22.10;99.90;;;;;;5012645;28;20438;-72
2022/07/31 06:23:15;;;;;;;4.17;2.33;;;22.20;99.90;;;;;;5018523;28;20461;-72
2022/07/31 06:25:42;;;;;;;7.73;3.90;;;22.30;99.90;;;;;;5014017;28;20480;-72
2022/07/31 06:28:09;;;;;;;6.90;3.13;;;22.60;99.90;;;;;;5011247;28;20461;-73
2022/07/31 06:30:35;;;;;;;2.87;2.23;;;22.70;99.90;;;;;;5005379;28;20464;-73
2022/07/31 06:33:02;;;;;;;3.37;3.07;;;22.70;99.90;;;;;;5008635;28;20464;-72
2022/07/31 06:35:30;;;;;;;3.60;3.30;;;22.80;99.90;;;;;;5004582;28;20588;-72
2022/07/31 06:37:58;;;;;;;3.30;2.80;;;22.80;99.90;;;;;;4995813;28;20464;-72
2022/07/31 06:40:25;;;;;;;3.70;3.00;;;22.90;99.90;;;;;;4995193;28;20473;-72
2022/07/31 06:42:52;;;;;;;3.43;3.13;;;22.80;99.90;;;;;;4994420;28;20461;-72
2022/07/31 06:45:19;;;;;;;6.10;2.77;;;22.90;99.90;;;;;;5003417;28;20564;-72
2022/07/31 06:47:46;;;;;;;6.30;3.73;;;23.20;99.90;;;;;;4989880;28;20461;-72
2022/07/31 06:50:13;;;;;;;8.27;4.13;;;23.20;99.90;;;;;;4993879;28;20465;-74
2022/07/31 06:52:41;;;;;;;4.03;3.70;;;23.20;99.90;;;;;;4995207;28;20461;-72
2022/07/31 06:55:09;;;;;;;6.03;3.40;;;23.20;99.90;;;;;;4987397;28;20512;-72
2022/07/31 06:57:37;;;;;;;4.90;3.93;;;23.30;99.90;;;;;;5009533;28;20554;-72
2022/07/31 07:00:06;;;;;;;7.80;4.13;;;23.50;99.90;;;;;;5006771;28;20482;-71
2022/07/31 07:02:33;;;;;;;4.60;4.10;;;23.50;99.90;;;;;;5001692;28;20980;-72
2022/07/31 07:04:59;;;;;;;4.33;3.50;;;23.40;99.90;;;;;;5009985;28;20460;-73
2022/07/31 07:07:26;;;;;;;9.23;3.90;;;23.50;99.90;;;;;;5005842;28;21239;-73
2022/07/31 07:09:53;;;;;;;3.87;3.23;;;23.60;99.90;;;;;;5010826;28;21350;-73
2022/07/31 07:12:22;;;;;;;5.83;4.63;;;23.50;99.90;;;;;;5012258;28;20558;-73
2022/07/31 07:14:48;;;;;;;8.43;3.63;;;23.30;99.90;;;;;;5001103;28;20591;-73
2022/07/31 07:17:16;;;;;;;10.30;4.23;;;23.10;99.90;;;;;;5008019;28;20485;-73
2022/07/31 07:19:43;;;;;;;4.13;3.60;;;23.00;99.90;;;;;;5013452;28;20495;-73
2022/07/31 07:22:10;;;;;;;10.03;4.13;;;23.00;99.90;;;;;;5010832;28;20468;-73
2022/07/31 07:24:37;;;;;;;4.83;4.30;;;23.00;99.90;;;;;;5006565;28;20469;-73
2022/07/31 07:27:04;;;;;;;6.20;4.30;;;23.10;99.90;;;;;;5009703;28;20973;-73
2022/07/31 07:29:32;;;;;;;6.27;3.87;;;23.10;99.90;;;;;;5008720;28;20461;-73
2022/07/31 07:31:59;;;;;;;6.87;4.30;;;23.20;99.90;;;;;;4999667;28;20571;-72
2022/07/31 07:34:26;;;;;;;3.80;3.40;;;23.20;99.90;;;;;;5009997;28;20469;-73
2022/07/31 07:36:54;;;;;;;7.03;4.10;;;23.30;99.90;;;;;;5014627;28;20478;-73
2022/07/31 07:39:21;;;;;;;5.70;4.20;;;23.40;99.90;;;;;;5010731;28;20491;-73
2022/07/31 07:41:48;;;;;;;6.87;5.00;;;23.80;99.90;;;;;;5013088;28;20539;-73
2022/07/31 07:44:14;;;;;;;6.93;5.10;;;24.20;99.90;;;;;;5002258;28;20522;-73
2022/07/31 07:46:42;;;;;;;5.83;4.83;;;24.30;99.90;;;;;;5001476;28;20487;-73
2022/07/31 07:49:09;;;;;;;4.17;3.40;;;24.20;99.90;;;;;;5003589;28;20464;-73
2022/07/31 07:51:36;;;;;;;7.80;4.13;;;24.30;99.90;;;;;;4999368;28;20481;-73
2022/07/31 07:54:03;;;;;;;4.67;4.23;;;24.20;99.90;;;;;;5001543;28;20845;-73
2022/07/31 07:56:30;;;;;;;8.20;4.20;;;24.10;99.90;;;;;;5008787;28;20488;-73
2022/07/31 07:58:57;;;;;;;6.03;4.30;;;24.10;99.90;;;;;;5009450;28;20465;-73
2022/07/31 08:01:25;;;;;;;4.93;4.20;;;24.20;99.90;;;;;;5005429;28;20465;-73
2022/07/31 08:03:53;;;;;;;8.57;4.20;;;24.40;99.90;;;;;;5014965;28;20452;-74
2022/07/31 08:06:21;;;;;;;13.33;4.20;;;24.50;99.90;;;;;;5003911;28;20476;-74
2022/07/31 08:08:48;;;;;;;3.63;3.33;;;24.40;99.90;;;;;;5012070;28;20507;-73
2022/07/31 08:11:17;;;;;;;4.40;3.83;;;24.40;99.90;;;;;;5013794;28;20469;-74
2022/07/31 08:13:45;;;;;;;4.30;3.63;;;24.60;99.90;;;;;;5009997;28;21092;-74
2022/07/31 08:16:12;;;;;;;4.70;2.90;;;24.70;99.90;;;;;;5004292;28;20986;-72
2022/07/31 08:18:39;;;;;;;5.10;3.20;;;24.90;99.90;;;;;;5009572;28;20460;-73
2022/07/31 08:21:07;;;;;;;3.40;3.10;;;25.00;99.90;;;;;;5011798;28;22125;-74
2022/07/31 08:23:34;;;;;;;3.10;2.67;;;25.10;99.90;;;;;;5007409;28;20477;-71
2022/07/31 08:26:03;;;;;;;3.20;2.90;;;24.70;99.90;;;;;;4990567;28;20564;-73
2022/07/31 08:28:30;;;;;;;3.03;2.60;;;24.40;99.90;;;;;;5001334;28;20894;-73
2022/07/31 08:30:57;;;;;;;2.53;2.33;;;24.30;99.90;;;;;;4992528;28;20465;-73
2022/07/31 08:33:24;;;;;;;9.10;3.50;;;24.50;99.90;;;;;;5002805;28;20468;-74
2022/07/31 08:35:51;;;;;;;4.13;2.60;;;24.30;99.90;;;;;;5004140;28;20492;-73
2022/07/31 08:38:20;;;;;;;3.70;3.03;;;24.50;99.90;;;;;;5016143;28;20900;-73
2022/07/31 08:40:47;;;;;;;3.53;2.83;;;24.60;99.90;;;;;;5011727;28;21061;-73
2022/07/31 08:43:14;;;;;;;3.20;2.43;;;24.50;99.90;;;;;;5003278;28;20474;-74
2022/07/31 08:45:43;;;;;;;4.87;3.13;;;24.30;99.90;;;;;;4998867;28;20565;-73
2022/07/31 08:48:10;;;;;;;5.40;2.67;;;24.30;99.90;;;;;;5002247;28;20464;-73
2022/07/31 08:50:40;;;;;;;2.97;2.40;;;24.00;99.90;;;;;;5008871;28;20454;-73
2022/07/31 08:53:07;;;;;;;3.50;2.47;;;24.20;99.90;;;;;;4994362;28;20473;-74
2022/07/31 08:55:38;;;;;;;1.90;1.80;;;24.20;99.90;;;;;;4997741;28;20464;-73
2022/07/31 08:58:05;;;;;;;3.33;2.20;;;24.10;99.90;;;;;;5005665;28;20453;-73
2022/07/31 09:00:36;;;;;;;3.27;2.27;;;24.20;99.90;;;;;;4998081;28;20588;-73
2022/07/31 09:03:04;;;;;;;2.63;1.73;;;24.10;99.90;;;;;;4993879;28;20456;-73
2022/07/31 09:05:31;;;;;;;2.93;2.30;;;24.30;99.90;;;;;;4994666;28;20472;-74
2022/07/31 09:08:01;;;;;;;3.30;2.10;;;24.30;99.90;;;;;;5003119;28;20825;-74
2022/07/31 09:10:28;;;;;;;3.77;1.50;;;24.20;99.90;;;;;;4997939;28;20460;-73
2022/07/31 09:12:57;;;;;;;1.97;1.77;;;23.90;99.90;;;;;;5001376;28;20547;-74
2022/07/31 09:15:25;;;;;;;1.87;1.37;;;23.70;99.90;;;;;;4999747;28;20469;-74
2022/07/31 09:17:53;;;;;;;2.63;1.73;;;23.40;99.90;;;;;;5012132;28;21307;-72
2022/07/31 09:20:28;;;;;;;1.63;1.50;;;23.40;99.90;;;;;;5005116;28;21013;-74
2022/07/31 09:23:09;;;;;;;4.50;1.80;;;23.40;99.90;;;;;;4991000;28;20456;-74
2022/07/31 09:25:36;;;;;;;2.97;2.00;;;23.40;99.90;;;;;;5000755;28;20514;-74
2022/07/31 09:28:06;;;;;;;1.70;1.60;;;23.30;99.90;;;;;;5008389;28;20461;-73
2022/07/31 09:30:33;;;;;;;1.60;1.50;;;23.30;99.90;;;;;;4996356;28;21187;-73
2022/07/31 09:33:15;;;;;;;1.60;1.40;;;23.30;99.90;;;;;;5005678;28;21133;-72
2022/07/31 09:35:49;;;;;;;2.83;1.80;;;23.60;99.90;;;;;;5001327;28;20484;-74
2022/07/31 09:38:16;;;;;;;2.80;1.70;;;23.80;99.90;;;;;;5001195;28;20454;-74
2022/07/31 09:40:44;;;;;;;3.00;2.70;;;23.80;99.90;;;;;;4997490;28;20492;-73
2022/07/31 09:43:18;;;;;;;2.80;2.10;;;23.70;99.90;;;;;;4980665;28;20559;-73
2022/07/31 09:45:46;;;;;;;2.40;2.13;;;23.90;99.90;;;;;;4994227;28;21036;-73
2022/07/31 09:48:13;;;;;;;3.90;2.07;;;23.90;99.90;;;;;;5002754;28;20496;-74
2022/07/31 09:50:54;;;;;;;3.10;2.23;;;23.90;99.90;;;;;;4995297;28;21362;-73
2022/07/31 09:53:21;;;;;;;3.33;2.03;;;23.90;99.90;;;;;;5009098;28;20527;-74
2022/07/31 09:55:52;;;;;;;3.60;2.23;;;23.60;99.90;;;;;;5004042;28;20477;-73
2022/07/31 09:58:21;;;;;;;2.83;2.63;;;23.40;99.90;;;;;;4997702;28;20504;-73
2022/07/31 10:00:50;;;;;;;2.27;2.07;;;23.40;99.90;;;;;;5001647;28;20516;-73
2022/07/31 10:03:18;;;;;;;5.07;2.60;;;23.30;99.90;;;;;;5012696;28;20523;-74
2022/07/31 10:05:46;;;;;;;5.27;2.60;;;23.30;99.90;;;;;;4998383;28;20480;-73
2022/07/31 10:08:16;;;;;;;3.00;2.57;;;23.60;99.90;;;;;;5008454;28;20653;-74
2022/07/31 10:10:43;;;;;;;1.80;1.50;;;23.90;99.90;;;;;;5012461;28;20482;-73
2022/07/31 10:13:15;;;;;;;3.07;2.20;;;23.90;99.90;;;;;;5003470;28;21427;-74
2022/07/31 10:15:46;;;;;;;3.43;2.50;;;24.10;99.90;;;;;;5012614;28;20477;-72
2022/07/31 10:18:15;;;;;;;2.73;2.50;;;24.10;99.90;;;;;;4999701;28;20477;-72
2022/07/31 10:20:49;;;;;;;2.90;2.70;;;23.90;99.90;;;;;;5005371;28;20503;-72
2022/07/31 10:23:21;;;;;;;2.50;2.30;;;24.00;99.90;;;;;;5008546;28;20543;-72
2022/07/31 10:25:51;;;;;;;2.53;2.27;;;24.00;99.90;;;;;;5003141;28;20485;-72
2022/07/31 10:28:19;;;;;;;1.73;1.63;;;24.30;99.90;;;;;;5004458;28;20610;-72
2022/07/31 10:30:48;;;;;;;3.20;2.40;;;24.40;99.90;;;;;;5006384;28;20478;-72
2022/07/31 10:33:16;;;;;;;4.57;4.27;;;24.50;99.90;;;;;;5008378;28;22312;-72
2022/07/31 10:35:47;;;;;;;3.57;2.60;;;24.60;99.90;;;;;;5007746;28;20633;-72
2022/07/31 10:38:20;;;;;;;3.23;2.37;;;24.60;99.90;;;;;;4992256;28;20481;-73
2022/07/31 10:40:55;;;;;;;2.80;1.97;;;24.70;99.90;;;;;;5004847;28;20501;-74
2022/07/31 10:43:27;;;;;;;3.40;2.13;;;24.70;99.90;;;;;;5009438;28;20480;-73
2022/07/31 10:45:57;;;;;;;2.20;2.00;;;24.70;99.90;;;;;;5003660;28;20632;-73
2022/07/31 10:48:24;;;;;;;4.60;1.70;;;24.90;99.90;;;;;;5002266;28;21257;-73
2022/07/31 10:51:02;;;;;;;2.47;1.47;;;25.20;99.90;;;;;;5006662;28;20476;-73
2022/07/31 10:53:30;;;;;;;1.97;1.60;;;26.10;99.90;;;;;;5006762;28;20481;-73
2022/07/31 10:56:01;;;;;;;2.77;2.20;;;26.80;99.90;;;;;;5005173;28;20946;-72
2022/07/31 10:58:29;;;;;;;2.93;1.70;;;27.00;99.90;;;;;;5007350;28;20486;-76
2022/07/31 11:01:06;;;;;;;4.50;2.03;;;27.30;99.90;;;;;;5013510;28;20559;-72
2022/07/31 11:03:39;;;;;;;1.90;1.50;;;27.10;99.90;;;;;;5012751;28;20571;-75
2022/07/31 11:06:06;;;;;;;1.70;1.50;;;27.20;99.90;;;;;;5010160;28;20859;-73
2022/07/31 11:08:41;;;;;;;2.13;1.60;;;27.00;99.90;;;;;;5008434;28;20488;-73
2022/07/31 11:11:09;;;;;;;8.60;1.90;;;26.80;99.90;;;;;;5007358;28;21123;-73
2022/07/31 11:13:46;;;;;;;3.33;2.70;;;26.60;99.90;;;;;;5007299;28;20544;-73
2022/07/31 11:16:15;;;;;;;2.60;1.73;;;26.50;99.90;;;;;;5004287;28;20539;-75
2022/07/31 11:18:41;;;;;;;2.07;1.87;;;26.40;99.90;;;;;;5005081;28;20478;-74
2022/07/31 11:21:10;;;;;;;2.83;2.00;;;25.90;99.90;;;;;;5007372;28;20480;-73
2022/07/31 11:23:37;;;;;;;5.83;2.17;;;25.50;99.90;;;;;;5014687;28;20484;-73
2022/07/31 11:26:06;;;;;;;2.43;2.00;;;25.50;99.90;;;;;;5009959;28;20486;-73
2022/07/31 11:28:33;;;;;;;4.17;1.90;;;25.40;99.90;;;;;;5005664;28;20579;-72
2022/07/31 11:31:02;;;;;;;2.20;1.77;;;25.60;99.90;;;;;;5039529;23;20495;-71
2022/07/31 11:33:39;;;;;;;2.33;2.00;;;25.80;99.90;;;;;;5031093;28;20491;-71
2022/07/31 11:36:11;;;;;;;2.03;1.70;;;25.50;99.90;;;;;;5034732;28;20464;-71
2022/07/31 11:38:40;;;;;;;2.57;1.90;;;25.40;99.90;;;;;;5035113;28;20479;-71
2022/07/31 11:41:07;;;;;;;2.23;1.70;;;25.40;99.90;;;;;;5029137;28;20483;-72
2022/07/31 11:43:36;;;;;;;2.57;2.00;;;25.30;99.90;;;;;;5027163;28;20566;-70
2022/07/31 11:46:04;;;;;;;2.53;2.10;;;25.30;99.90;;;;;;5029833;28;20481;-70
2022/07/31 11:48:31;;;;;;;2.47;1.80;;;25.30;99.90;;;;;;5032296;28;20568;-71
2022/07/31 11:51:00;;;;;;;2.63;1.90;;;25.30;99.90;;;;;;5024347;28;21066;-70
2022/07/31 11:53:27;;;;;;;4.50;2.40;;;25.20;99.90;;;;;;5032936;28;21314;-71
2022/07/31 11:55:57;;;;;;;3.00;2.00;;;25.30;99.90;;;;;;5030255;28;20498;-71
2022/07/31 11:58:25;;;;;;;2.17;1.97;;;25.30;99.90;;;;;;4999969;28;20538;-72
2022/07/31 12:00:54;;;;;;;2.63;2.30;;;25.20;99.90;;;;;;5004148;28;20491;-70
2022/07/31 12:03:28;;;;;;;2.63;2.20;;;25.40;99.90;;;;;;5015633;28;20468;-70
2022/07/31 12:05:56;;;;;;;2.83;2.43;;;25.70;99.90;;;;;;5021017;28;20471;-69
2022/07/31 12:08:28;;;;;;;3.07;2.40;;;26.10;99.90;;;;;;5007497;28;20471;-70
2022/07/31 12:10:56;;;;;;;5.33;2.60;;;26.20;99.90;;;;;;4984869;28;21084;-70
2022/07/31 12:13:27;;;;;;;3.20;2.20;;;26.10;99.90;;;;;;5018976;28;20856;-70
2022/07/31 12:15:56;;;;;;;3.30;2.60;;;25.70;99.90;;;;;;5012210;28;20886;-70
2022/07/31 12:18:23;;;;;;;5.10;3.10;;;25.70;99.90;;;;;;5009433;28;20483;-69
2022/07/31 12:20:55;;;;;;;2.80;2.13;;;25.70;99.90;;;;;;5019676;28;20498;-70
2022/07/31 12:23:22;;;;;;;3.10;2.57;;;25.70;99.90;;;;;;5027854;28;20459;-72
2022/07/31 12:25:52;;;;;;;2.63;2.40;;;25.80;99.90;;;;;;5025425;28;20554;-71
2022/07/31 12:28:19;;;;;;;2.70;2.20;;;25.80;99.90;;;;;;5029475;28;20460;-71
2022/07/31 12:30:59;;;;;;;2.40;2.20;;;25.80;99.90;;;;;;5016615;28;21269;-72
2022/07/31 12:33:27;;;;;;;5.30;2.80;;;26.00;99.90;;;;;;5017542;28;20463;-70
2022/07/31 12:35:54;;;;;;;2.77;2.47;;;26.60;99.90;;;;;;5020914;28;20521;-70
2022/07/31 12:38:25;;;;;;;3.03;2.80;;;27.30;99.90;;;;;;5025535;28;20955;-69
2022/07/31 12:41:03;;;;;;;5.23;2.43;;;27.40;99.90;;;;;;5027816;28;20567;-69
2022/07/31 12:43:30;;;;;;;3.77;2.63;;;27.20;99.90;;;;;;5029964;28;20455;-69
2022/07/31 12:46:01;;;;;;;3.73;2.80;;;27.30;99.90;;;;;;5026408;28;20461;-69
2022/07/31 12:48:28;;;;;;;3.13;2.60;;;27.60;99.90;;;;;;5024501;28;20799;-68
2022/07/31 12:50:55;;;;;;;2.97;2.33;;;27.70;99.90;;;;;;5030544;28;20485;-68
2022/07/31 12:53:22;;;;;;;4.30;3.10;;;27.80;99.90;;;;;;5038045;28;20458;-70